»·PEaware :: N510CJ KASE-KSLC

N510CJ :: KASE-KSLC

FLIGHT INFORMATION

Flight Status: Arrived
Operator: Privately registered:
United States
More flights under this callsign
Pilot: John G. (2195)
Aircraft: CESSNA 510 CITATION MUSTANG
(C510)
More flights by this aircraft type
Origin: KASE Aspen-Pitkin Co/Sardy
United States
Destination: KSLC Salt Lake City Intl
United States
More flights between these airports :: More routes between these airports
Route: LINDZ8 EKR LEEHY5
File this flight plan on PilotEdge
Remarks:
Altitude:
(Current/Filed)
31,000ft
Speed:
(Current/Filed)
340kts
Departed: 16-Dec-17 12:42 PM
Arrived: 16-Dec-17 01:55 PM
Distance/Time
Traveled:
252nm/1:13
Distance/Time
To Go:
Arrived

Flight Plot

Page will automatically refresh every two minutes.

Flight plan parsing failed; only flown route is shown


Map Options




Map Legend


Flown Route
Filed Route
Departure Airport
Arrival Airport
Navaid (VOR, NDB)
Fix

Horizontal Profiles

Position Reports

Time Latitude Longitude Heading Altitude Ground
Speed
16-Dec-17 12:20 39.222261 -106.866786 249 7738ft 0kts
16-Dec-17 12:21 39.222261 -106.866786 249 7738ft 0kts
16-Dec-17 12:22 39.222261 -106.866786 249 7738ft 0kts
16-Dec-17 12:23 39.222261 -106.866786 249 7738ft 0kts
16-Dec-17 12:24 39.222261 -106.866786 249 7738ft 0kts
16-Dec-17 12:25 39.222261 -106.866786 249 7738ft 0kts
16-Dec-17 12:27 39.222261 -106.866786 249 7738ft 0kts
16-Dec-17 12:28 39.222261 -106.866787 249 7738ft 0kts
16-Dec-17 12:29 39.222261 -106.866787 249 7738ft 0kts
16-Dec-17 12:30 39.222261 -106.866787 249 7738ft 0kts
16-Dec-17 12:31 39.222261 -106.866788 249 7738ft 0kts
16-Dec-17 12:32 39.222261 -106.866788 249 7738ft 0kts
16-Dec-17 12:33 39.222260 -106.866788 249 7738ft 0kts
16-Dec-17 12:34 39.222260 -106.866789 249 7738ft 0kts
16-Dec-17 12:35 39.222260 -106.866789 249 7738ft 0kts
16-Dec-17 12:36 39.222260 -106.866790 249 7738ft 0kts
16-Dec-17 12:37 39.222260 -106.866790 249 7738ft 0kts
16-Dec-17 12:38 39.222260 -106.866790 249 7738ft 0kts
16-Dec-17 12:39 39.222260 -106.866791 249 7738ft 0kts
16-Dec-17 12:40 39.222260 -106.866791 249 7738ft 0kts
16-Dec-17 12:41 39.222260 -106.866791 249 7738ft 0kts
16-Dec-17 12:42 39.222260 -106.866792 249 7738ft 0kts
16-Dec-17 12:43 39.221308 -106.866515 158 7738ft 16kts
16-Dec-17 12:44 39.215793 -106.864203 160 7738ft 17kts
16-Dec-17 12:45 39.213904 -106.863300 159 7738ft 10kts
16-Dec-17 12:46 39.212379 -106.862624 166 7738ft 0kts
16-Dec-17 12:47 39.212195 -106.862565 170 7738ft 4kts
16-Dec-17 12:48 39.216406 -106.865686 339 7738ft 81kts
16-Dec-17 12:49 39.251648 -106.879474 345 9187ft 168kts
16-Dec-17 12:50 39.279770 -106.926623 285 11789ft 188kts
16-Dec-17 12:51 39.292776 -106.994082 279 14330ft 198kts
16-Dec-17 12:52 39.316859 -107.060627 304 16940ft 215kts
16-Dec-17 12:53 39.359062 -107.117066 304 19371ft 222kts
16-Dec-17 12:54 39.383728 -107.151949 295 20536ft 220kts
16-Dec-17 12:55 39.378388 -107.223017 247 22096ft 202kts
16-Dec-17 12:56 39.362577 -107.293712 249 23511ft 207kts
16-Dec-17 12:57 39.348075 -107.366213 250 24797ft 210kts
16-Dec-17 12:58 39.333525 -107.440156 249 25913ft 214kts
16-Dec-17 12:59 39.318784 -107.515011 250 26892ft 217kts
16-Dec-17 13:00 39.303748 -107.591202 250 27766ft 220kts
16-Dec-17 13:01 39.342672 -107.654403 333 28413ft 283kts
16-Dec-17 13:02 39.419966 -107.679828 337 29084ft 286kts
16-Dec-17 13:03 39.496610 -107.707628 334 29623ft 286kts
16-Dec-17 13:04 39.572734 -107.737138 334 30157ft 285kts
16-Dec-17 13:05 39.649065 -107.766222 334 30655ft 286kts
16-Dec-17 13:06 39.726690 -107.795868 334 30867ft 298kts
16-Dec-17 13:07 39.808784 -107.826716 335 30854ft 315kts
16-Dec-17 13:08 39.894657 -107.859234 335 30842ft 327kts
16-Dec-17 13:09 39.983372 -107.893111 335 30833ft 335kts
16-Dec-17 13:10 40.069763 -107.934765 307 30829ft 315kts
16-Dec-17 13:11 40.084900 -108.032319 257 30836ft 275kts
16-Dec-17 13:12 40.080422 -108.132978 262 30837ft 281kts
16-Dec-17 13:13 40.082115 -108.235523 264 30843ft 284kts
16-Dec-17 13:14 40.085925 -108.339052 265 30848ft 285kts
16-Dec-17 13:15 40.090167 -108.442497 265 30841ft 286kts
16-Dec-17 13:16 40.094463 -108.546189 265 30838ft 286kts
16-Dec-17 13:17 40.098677 -108.650183 264 30840ft 286kts
16-Dec-17 13:18 40.102808 -108.753751 264 30841ft 285kts
16-Dec-17 13:19 40.107172 -108.857584 264 30841ft 285kts
16-Dec-17 13:20 40.111233 -108.960993 264 30841ft 285kts
16-Dec-17 13:21 40.114337 -109.047088 263 30841ft 285kts
16-Dec-17 13:22 40.118649 -109.168085 263 30841ft 285kts
16-Dec-17 13:23 40.122276 -109.271635 263 30841ft 286kts
16-Dec-17 13:24 40.125234 -109.358019 263 30841ft 286kts
16-Dec-17 13:25 40.128721 -109.462189 262 30841ft 286kts
16-Dec-17 13:26 40.132107 -109.566101 262 30841ft 286kts
16-Dec-17 13:27 40.135307 -109.671034 262 30474ft 297kts
16-Dec-17 13:28 40.138444 -109.780366 263 29047ft 300kts
16-Dec-17 13:29 40.142238 -109.907020 265 26807ft 296kts
16-Dec-17 13:30 40.145233 -109.996277 265 25136ft 291kts
16-Dec-17 13:31 40.148364 -110.100229 265 23844ft 287kts
16-Dec-17 13:32 40.151132 -110.204249 266 22232ft 284kts
16-Dec-17 13:33 40.153985 -110.306809 266 20229ft 280kts
16-Dec-17 13:34 40.152122 -110.407168 260 18944ft 275kts
16-Dec-17 13:35 40.147157 -110.507235 262 17988ft 278kts
16-Dec-17 13:36 40.144850 -110.608172 264 16325ft 276kts
16-Dec-17 13:37 40.143413 -110.708777 265 15216ft 277kts
16-Dec-17 13:38 40.142107 -110.809569 266 14217ft 278kts
16-Dec-17 13:39 40.140759 -110.910862 267 13215ft 278kts
16-Dec-17 13:40 40.139342 -111.011885 268 12216ft 278kts
16-Dec-17 13:41 40.137870 -111.113386 268 11889ft 280kts
16-Dec-17 13:42 40.136505 -111.214901 268 11890ft 280kts
16-Dec-17 13:43 40.134687 -111.316371 268 11889ft 280kts
16-Dec-17 13:44 40.132786 -111.418430 268 11889ft 280kts
16-Dec-17 13:45 40.130841 -111.520168 268 11890ft 281kts
16-Dec-17 13:46 40.149813 -111.617010 291 11894ft 267kts
16-Dec-17 13:47 40.179869 -111.710579 305 11956ft 282kts
16-Dec-17 13:48 40.241734 -111.776822 321 11960ft 286kts
16-Dec-17 13:49 40.301301 -111.844214 319 11761ft 280kts
16-Dec-17 13:50 40.360212 -111.905804 320 10990ft 257kts
16-Dec-17 13:51 40.421444 -111.934656 356 10985ft 229kts
16-Dec-17 13:52 40.482444 -111.938665 352 10899ft 191kts
16-Dec-17 13:53 40.527854 -111.944723 353 9312ft 149kts
16-Dec-17 13:54 40.564697 -111.948844 354 8430ft 128kts
16-Dec-17 13:55 40.601615 -111.953032 354 7696ft 138kts
16-Dec-17 13:56 40.640618 -111.957538 354 6901ft 135kts
16-Dec-17 13:57 40.674685 -111.961462 354 6172ft 119kts
16-Dec-17 13:58 40.707151 -111.965069 352 5568ft 114kts
16-Dec-17 13:59 40.735563 -111.968326 350 4931ft 89kts
16-Dec-17 14:00 40.760548 -111.971231 348 4599ft 94kts
16-Dec-17 14:01 40.782751 -111.974029 358 4229ft 35kts
16-Dec-17 14:02 40.785794 -111.973945 41 4229ft 4kts
16-Dec-17 14:03 40.785459 -111.969713 85 4229ft 13kts
16-Dec-17 14:04 40.786565 -111.963704 75 4229ft 0kts
16-Dec-17 14:05 40.786081 -111.960606 126 4229ft 19kts
16-Dec-17 14:06 40.781330 -111.959168 181 4229ft 36kts
16-Dec-17 14:07 40.776235 -111.958886 180 4229ft 12kts
16-Dec-17 14:08 40.778546 -111.958622 17 4229ft 6kts
16-Dec-17 14:09 40.779352 -111.958455 184 4229ft 0kts
16-Dec-17 14:10 40.779352 -111.958455 184 4229ft 0kts

Navigation Log

Ident Type
Flight plan parsing failed, navigation log unavailable